Time;durP1;ratioP1;P1;durP2;ratioP2;P2;SDS_P1;SDS_P2;PMS_P1;PMS_P2;Temp;Humidity;BMP_temperature;BMP_pressure;BME280_temperature;BME280_humidity;BME280_pressure;Samples;Min_cycle;Max_cycle;Signal;HPM_P1;HPM_P2
2022/02/16 00:00:10;;;;;;;0.30;0.20;;;;;;;8.49;87.85;99702.03;4995410;28;20485;-53
2022/02/16 00:02:38;;;;;;;0.30;0.20;;;;;;;8.45;88.90;99703.94;4995928;28;20615;-53
2022/02/16 00:05:08;;;;;;;0.30;0.20;;;;;;;8.49;88.12;99704.69;4995490;28;20548;-52
2022/02/16 00:07:37;;;;;;;0.30;0.20;;;;;;;8.57;88.74;99700.91;4995593;28;20535;-53
2022/02/16 00:10:04;;;;;;;0.30;0.10;;;;;;;8.48;88.78;99702.97;4995476;28;20453;-52
2022/02/16 00:12:30;;;;;;;0.30;0.20;;;;;;;8.52;89.03;99694.03;4995455;28;20545;-53
2022/02/16 00:14:57;;;;;;;0.30;0.20;;;;;;;8.46;89.81;99694.19;4995146;28;20543;-53
2022/02/16 00:17:24;;;;;;;0.30;0.20;;;;;;;8.51;89.54;99690.53;4995519;28;20486;-53
2022/02/16 00:19:50;;;;;;;0.30;0.20;;;;;;;8.33;90.99;99680.41;4995198;28;20979;-53
2022/02/16 00:22:17;;;;;;;0.30;0.10;;;;;;;8.54;89.37;99684.25;4994310;28;20520;-53
2022/02/16 00:24:43;;;;;;;0.30;0.20;;;;;;;8.50;90.14;99688.78;4995057;28;20842;-53
2022/02/16 00:27:10;;;;;;;0.33;0.30;;;;;;;8.46;90.62;99679.19;4995128;28;20951;-53
2022/02/16 00:29:36;;;;;;;0.30;0.20;;;;;;;8.35;91.13;99673.31;4995060;28;21002;-53
2022/02/16 00:32:03;;;;;;;0.30;0.20;;;;;;;8.36;91.59;99676.84;4995084;28;20823;-53
2022/02/16 00:34:30;;;;;;;0.30;0.20;;;;;;;8.39;91.19;99677.63;4994784;28;21061;-53
2022/02/16 00:36:56;;;;;;;0.20;0.10;;;;;;;8.50;90.23;99669.38;4995054;28;21017;-53
2022/02/16 00:39:23;;;;;;;0.30;0.20;;;;;;;8.52;90.33;99664.91;4994850;28;20453;-53
2022/02/16 00:41:50;;;;;;;0.20;0.10;;;;;;;8.50;90.78;99661.44;4994902;28;20453;-53
2022/02/16 00:44:16;;;;;;;0.20;0.20;;;;;;;8.54;90.05;99652.47;4994583;28;20477;-53
2022/02/16 00:46:43;;;;;;;0.30;0.20;;;;;;;8.73;89.85;99652.75;4994989;28;20497;-53
2022/02/16 00:49:09;;;;;;;0.30;0.20;;;;;;;8.81;88.88;99637.50;4994779;28;20516;-52
2022/02/16 00:51:36;;;;;;;0.30;0.20;;;;;;;8.68;90.33;99646.75;4994671;28;20573;-53
2022/02/16 00:54:03;;;;;;;0.20;0.20;;;;;;;8.73;90.10;99634.22;4994469;28;20454;-53
2022/02/16 00:56:30;;;;;;;0.30;0.17;;;;;;;8.68;91.28;99630.84;4994582;28;20449;-53
2022/02/16 00:58:56;;;;;;;0.30;0.20;;;;;;;8.58;91.35;99625.84;4994569;28;20489;-53
2022/02/16 01:01:23;;;;;;;0.30;0.20;;;;;;;8.56;91.66;99624.16;4994662;28;20453;-53
2022/02/16 01:03:49;;;;;;;0.20;0.20;;;;;;;8.49;92.48;99623.47;4994516;28;20472;-53
2022/02/16 01:06:16;;;;;;;0.30;0.20;;;;;;;8.54;92.68;99623.34;4994398;28;20532;-53
2022/02/16 01:08:42;;;;;;;0.30;0.20;;;;;;;8.54;92.22;99621.56;4994270;28;20504;-53
2022/02/16 01:11:09;;;;;;;0.30;0.20;;;;;;;8.71;92.36;99615.72;4994229;28;20512;-53
2022/02/16 01:13:36;;;;;;;0.30;0.20;;;;;;;8.60;92.49;99610.75;4994448;28;20445;-53
2022/02/16 01:16:03;;;;;;;0.30;0.20;;;;;;;8.48;93.61;99611.13;4994425;28;20536;-53
2022/02/16 01:18:32;;;;;;;0.30;0.20;;;;;;;8.52;92.39;99614.56;4994142;28;20446;-53
2022/02/16 01:20:58;;;;;;;0.30;0.17;;;;;;;8.51;92.87;99605.75;4994348;28;20527;-53
2022/02/16 01:23:25;;;;;;;0.30;0.20;;;;;;;8.54;93.61;99607.44;4994144;28;20482;-53
2022/02/16 01:25:52;;;;;;;0.30;0.17;;;;;;;8.52;93.40;99602.19;4993908;28;20911;-52
2022/02/16 01:28:18;;;;;;;0.30;0.20;;;;;;;8.48;94.17;99594.38;4994136;28;20453;-53
2022/02/16 01:30:45;;;;;;;0.30;0.20;;;;;;;8.74;93.09;99593.56;4994110;28;20957;-53
2022/02/16 01:33:11;;;;;;;0.30;0.17;;;;;;;8.67;93.32;99592.91;4993843;28;20454;-54
2022/02/16 01:35:38;;;;;;;0.30;0.20;;;;;;;8.70;92.60;99576.91;4993633;28;20998;-53
2022/02/16 01:38:05;;;;;;;0.30;0.10;;;;;;;8.51;93.72;99571.34;4993662;28;20449;-53
2022/02/16 01:40:31;;;;;;;0.20;0.20;;;;;;;8.48;95.28;99576.69;4993810;28;20449;-53
2022/02/16 01:43:00;;;;;;;0.30;0.20;;;;;;;8.44;95.69;99571.56;4993879;28;20450;-52
2022/02/16 01:45:29;;;;;;;0.30;0.20;;;;;;;8.80;94.02;99573.03;4993590;28;20525;-53
2022/02/16 01:47:56;;;;;;;0.30;0.20;;;;;;;8.54;95.55;99570.38;4999371;28;20476;-53
2022/02/16 01:50:22;;;;;;;0.30;0.20;;;;;;;8.37;96.73;99562.09;4993491;28;20970;-53
2022/02/16 01:52:52;;;;;;;0.30;0.20;;;;;;;8.41;97.28;99556.63;4993397;28;20453;-53
2022/02/16 01:55:19;;;;;;;0.30;0.20;;;;;;;8.38;97.75;99548.81;4993636;28;20508;-53
2022/02/16 01:57:47;;;;;;;0.30;0.20;;;;;;;8.39;97.19;99545.22;4993662;28;20473;-53
2022/02/16 02:00:14;;;;;;;0.20;0.10;;;;;;;8.50;96.89;99547.56;4993317;28;20500;-53
2022/02/16 02:02:42;;;;;;;0.30;0.20;;;;;;;8.55;95.99;99532.38;4993554;28;20450;-53
2022/02/16 02:05:11;;;;;;;0.30;0.17;;;;;;;8.48;97.16;99529.03;4993228;28;20505;-53
2022/02/16 02:07:40;;;;;;;0.30;0.20;;;;;;;8.71;96.57;99524.78;4993562;28;20450;-53
2022/02/16 02:10:08;;;;;;;0.20;0.10;;;;;;;8.64;95.44;99516.19;4993442;28;20536;-53
2022/02/16 02:12:43;;;;;;;0.30;0.10;;;;;;;8.64;95.45;99512.66;4993311;28;20477;-52
2022/02/16 02:15:10;;;;;;;0.30;0.20;;;;;;;8.47;96.91;99505.25;4980690;28;20500;-53
2022/02/16 02:17:38;;;;;;;0.30;0.20;;;;;;;8.71;96.29;99498.28;4993075;28;20445;-52
2022/02/16 02:20:17;;;;;;;0.30;0.20;;;;;;;8.45;97.17;99501.78;4993478;28;20465;-53
2022/02/16 02:22:43;;;;;;;0.30;0.20;;;;;;;8.28;97.48;99494.38;4993218;28;20508;-53
2022/02/16 02:25:10;;;;;;;0.20;0.20;;;;;;;8.43;98.88;99487.75;4993306;28;20469;-53
2022/02/16 02:27:37;;;;;;;0.30;0.20;;;;;;;8.60;97.17;99480.94;4992853;28;20539;-53
2022/02/16 02:30:04;;;;;;;0.30;0.10;;;;;;;8.49;97.18;99482.22;4993024;28;20512;-52
2022/02/16 02:32:31;;;;;;;0.30;0.20;;;;;;;8.46;97.67;99484.97;4993158;28;20457;-53
2022/02/16 02:34:58;;;;;;;0.27;0.10;;;;;;;8.42;98.08;99475.41;4992875;28;20555;-53
2022/02/16 02:37:25;;;;;;;0.30;0.17;;;;;;;8.51;97.46;99475.97;4993062;28;20981;-53
2022/02/16 02:39:52;;;;;;;0.30;0.20;;;;;;;8.48;97.47;99472.56;4993065;28;20482;-53
2022/02/16 02:42:18;;;;;;;0.30;0.20;;;;;;;8.42;97.84;99460.38;4992842;28;20500;-53
2022/02/16 02:44:45;;;;;;;0.30;0.20;;;;;;;8.56;97.94;99452.84;4992316;28;20899;-53
2022/02/16 02:47:11;;;;;;;0.30;0.10;;;;;;;8.49;98.11;99453.97;4992626;28;20520;-53
2022/02/16 02:49:38;;;;;;;0.20;0.20;;;;;;;8.76;97.32;99453.94;4993049;28;20497;-53
2022/02/16 02:52:05;;;;;;;0.30;0.20;;;;;;;8.50;97.54;99447.78;4992655;28;20947;-53
2022/02/16 02:54:31;;;;;;;0.30;0.20;;;;;;;8.54;97.63;99438.78;4992783;28;20547;-53
2022/02/16 02:56:58;;;;;;;0.30;0.20;;;;;;;8.48;97.60;99433.69;4992708;28;20481;-53
2022/02/16 02:59:25;;;;;;;0.30;0.20;;;;;;;8.55;98.22;99426.41;4992636;28;20450;-52
2022/02/16 03:01:51;;;;;;;0.30;0.20;;;;;;;8.51;98.70;99415.06;4992792;28;20484;-53
2022/02/16 03:04:18;;;;;;;0.20;0.10;;;;;;;8.65;98.79;99413.72;4992807;28;20449;-52
2022/02/16 03:06:44;;;;;;;0.30;0.20;;;;;;;8.63;97.96;99408.47;4992734;28;20489;-53
2022/02/16 03:09:11;;;;;;;0.30;0.20;;;;;;;8.60;98.37;99412.09;4991570;28;20465;-53
2022/02/16 03:11:37;;;;;;;0.30;0.20;;;;;;;8.48;99.70;99404.56;4992532;28;20503;-53
2022/02/16 03:14:04;;;;;;;0.30;0.20;;;;;;;8.53;100.00;99410.59;4992476;28;20449;-53
2022/02/16 03:16:31;;;;;;;0.30;0.20;;;;;;;8.51;100.00;99406.25;4992521;28;20446;-53
2022/02/16 03:18:57;;;;;;;2.13;0.87;;;;;;;8.77;99.38;99395.63;4992637;28;20489;-53
2022/02/16 03:21:24;;;;;;;0.30;0.20;;;;;;;8.57;100.00;99395.44;4992484;28;20477;-53
2022/02/16 03:23:51;;;;;;;0.20;0.17;;;;;;;8.59;100.00;99398.91;4992665;28;20442;-53
2022/02/16 03:26:18;;;;;;;0.20;0.20;;;;;;;8.60;100.00;99384.72;4992321;28;20874;-53
2022/02/16 03:28:45;;;;;;;0.30;0.20;;;;;;;8.59;100.00;99381.22;4992418;28;20879;-53
2022/02/16 03:31:11;;;;;;;0.30;0.10;;;;;;;8.60;100.00;99388.25;4992348;28;21005;-53
2022/02/16 03:33:38;;;;;;;0.30;0.20;;;;;;;8.65;100.00;99387.25;4992530;28;20485;-53
2022/02/16 03:36:04;;;;;;;0.30;0.20;;;;;;;8.79;100.00;99387.63;4992118;28;20478;-53
2022/02/16 03:38:31;;;;;;;0.30;0.10;;;;;;;8.61;100.00;99387.31;4992446;28;20477;-53
2022/02/16 03:40:57;;;;;;;0.30;0.30;;;;;;;8.51;100.00;99380.63;4992278;28;20453;-53
2022/02/16 03:43:24;;;;;;;0.30;0.20;;;;;;;8.58;100.00;99365.38;4992377;28;20576;-53
2022/02/16 03:45:51;;;;;;;0.20;0.10;;;;;;;8.71;100.00;99365.81;4991997;28;20465;-53
2022/02/16 03:48:17;;;;;;;0.30;0.20;;;;;;;8.58;100.00;99366.25;4992224;28;20500;-53
2022/02/16 03:50:44;;;;;;;0.30;0.20;;;;;;;8.55;100.00;99361.06;4979432;28;20492;-53
2022/02/16 03:53:10;;;;;;;0.20;0.20;;;;;;;8.60;100.00;99360.88;4992297;28;20457;-52
2022/02/16 03:55:37;;;;;;;0.20;0.10;;;;;;;8.61;100.00;99365.25;4979220;28;20520;-53
2022/02/16 03:58:04;;;;;;;0.30;0.10;;;;;;;8.79;100.00;99364.63;4995040;28;20507;-53
2022/02/16 04:00:30;;;;;;;0.30;0.10;;;;;;;8.57;100.00;99366.31;4982800;28;20539;-53
2022/02/16 04:02:57;;;;;;;0.20;0.20;;;;;;;8.60;100.00;99356.47;4995589;28;20457;-53
2022/02/16 04:05:24;;;;;;;0.30;0.20;;;;;;;8.52;100.00;99350.59;4995474;28;21002;-54
2022/02/16 04:07:50;;;;;;;0.30;0.20;;;;;;;8.67;100.00;99349.16;4995434;28;20489;-53
2022/02/16 04:10:17;;;;;;;0.20;0.10;;;;;;;8.61;100.00;99339.63;4995422;28;20453;-53
2022/02/16 04:12:43;;;;;;;0.30;0.10;;;;;;;8.79;100.00;99340.78;4995529;28;20460;-52
2022/02/16 04:15:10;;;;;;;0.30;0.20;;;;;;;8.61;100.00;99337.00;4995345;28;20991;-53
2022/02/16 04:17:37;;;;;;;0.30;0.20;;;;;;;8.78;100.00;99333.75;4995332;28;20865;-53
2022/02/16 04:20:04;;;;;;;0.30;0.20;;;;;;;8.73;100.00;99342.78;4995414;28;20883;-53
2022/02/16 04:22:31;;;;;;;0.30;0.20;;;;;;;8.70;100.00;99327.00;4995095;28;20452;-53
2022/02/16 04:24:58;;;;;;;0.30;0.10;;;;;;;8.58;100.00;99330.94;4995105;28;20535;-53
2022/02/16 04:27:24;;;;;;;0.20;0.20;;;;;;;8.59;100.00;99325.59;4995111;28;20520;-53
2022/02/16 04:29:51;;;;;;;0.30;0.20;;;;;;;8.60;100.00;99316.72;4995381;28;20500;-53
2022/02/16 04:32:18;;;;;;;0.30;0.20;;;;;;;8.53;100.00;99315.22;4995035;28;20870;-53
2022/02/16 04:34:44;;;;;;;0.20;0.20;;;;;;;8.64;100.00;99311.34;4995644;28;20524;-52
2022/02/16 04:37:11;;;;;;;0.30;0.20;;;;;;;8.70;100.00;99313.75;4995004;28;20801;-54
2022/02/16 04:39:37;;;;;;;0.30;0.10;;;;;;;8.77;100.00;99315.25;4995241;28;20823;-53
2022/02/16 04:42:04;;;;;;;0.30;0.20;;;;;;;8.59;100.00;99324.72;4995157;28;20454;-53
2022/02/16 04:44:31;;;;;;;0.30;0.20;;;;;;;8.63;100.00;99322.81;4994842;28;20852;-53
2022/02/16 04:46:57;;;;;;;0.20;0.20;;;;;;;8.72;100.00;99330.44;4994926;28;20485;-53
2022/02/16 04:49:24;;;;;;;0.30;0.20;;;;;;;8.78;100.00;99327.59;4994889;28;20453;-53
2022/02/16 04:51:51;;;;;;;0.20;0.20;;;;;;;8.59;100.00;99327.38;4994540;28;20457;-53
2022/02/16 04:54:17;;;;;;;0.30;0.20;;;;;;;8.57;100.00;99329.22;4994903;28;20495;-53
2022/02/16 04:56:44;;;;;;;0.20;0.10;;;;;;;8.72;100.00;99318.06;4994753;28;20460;-53
2022/02/16 04:59:10;;;;;;;0.40;0.40;;;;;;;8.88;100.00;99305.09;4994793;28;20453;-53
2022/02/16 05:01:37;;;;;;;0.20;0.20;;;;;;;8.66;100.00;99313.00;4994580;28;20576;-53
2022/02/16 05:04:04;;;;;;;0.30;0.13;;;;;;;8.68;100.00;99307.66;4994534;28;20871;-52
2022/02/16 05:06:31;;;;;;;0.30;0.20;;;;;;;8.81;100.00;99290.38;4994217;28;20911;-53
2022/02/16 05:08:57;;;;;;;0.20;0.10;;;;;;;8.77;100.00;99297.59;4994203;28;20449;-52
2022/02/16 05:11:25;;;;;;;0.30;0.20;;;;;;;8.56;100.00;99293.06;4994337;28;20951;-53
2022/02/16 05:13:52;;;;;;;0.20;0.10;;;;;;;8.67;100.00;99297.97;4994542;28;20445;-54
2022/02/16 05:16:19;;;;;;;0.20;0.20;;;;;;;8.67;100.00;99290.03;4994095;28;20502;-53
2022/02/16 05:18:45;;;;;;;0.20;0.17;;;;;;;8.67;100.00;99288.25;4994360;28;20495;-53
2022/02/16 05:21:12;;;;;;;0.30;0.20;;;;;;;8.64;100.00;99282.19;4994131;28;20512;-52
2022/02/16 05:23:39;;;;;;;0.20;0.10;;;;;;;8.64;100.00;99275.13;4994455;28;20505;-53
2022/02/16 05:26:06;;;;;;;0.20;0.20;;;;;;;8.88;100.00;99263.56;4993971;28;21052;-53
2022/02/16 05:28:33;;;;;;;0.20;0.20;;;;;;;8.69;100.00;99261.69;4994260;28;20454;-52
2022/02/16 05:30:59;;;;;;;0.23;0.13;;;;;;;8.73;100.00;99260.66;4993974;28;20491;-53
2022/02/16 05:33:28;;;;;;;0.30;0.20;;;;;;;8.55;100.00;99264.84;4993915;28;20493;-53
2022/02/16 05:35:56;;;;;;;0.20;0.20;;;;;;;8.78;100.00;99266.66;4993507;28;20481;-53
2022/02/16 05:38:22;;;;;;;0.27;0.20;;;;;;;8.96;100.00;99265.09;4994202;28;20450;-53
2022/02/16 05:40:51;;;;;;;0.20;0.17;;;;;;;8.72;100.00;99262.44;4993820;28;20461;-53
2022/02/16 05:43:19;;;;;;;0.20;0.20;;;;;;;8.82;100.00;99249.72;4993888;28;20457;-52
2022/02/16 05:45:46;;;;;;;0.30;0.20;;;;;;;8.70;100.00;99245.72;4993437;28;20497;-53
2022/02/16 05:48:20;;;;;;;0.30;0.20;;;;;;;8.71;100.00;99252.75;4993603;28;20543;-53
2022/02/16 05:50:49;;;;;;;0.30;0.17;;;;;;;8.83;100.00;99241.69;4981212;28;20530;-52
2022/02/16 05:53:16;;;;;;;0.20;0.20;;;;;;;8.84;100.00;99238.13;4993652;28;20536;-52
2022/02/16 05:55:43;;;;;;;0.30;0.20;;;;;;;8.68;100.00;99244.94;4993534;28;21373;-53
2022/02/16 05:58:09;;;;;;;0.20;0.17;;;;;;;8.86;100.00;99238.06;4993483;28;20449;-53
2022/02/16 06:00:36;;;;;;;0.30;0.17;;;;;;;8.78;100.00;99232.22;4993250;28;20489;-53
2022/02/16 06:03:03;;;;;;;0.20;0.20;;;;;;;8.85;100.00;99229.25;4993530;28;20449;-53
2022/02/16 06:05:31;;;;;;;0.20;0.10;;;;;;;8.78;100.00;99233.06;4993447;28;20469;-53
2022/02/16 06:07:58;;;;;;;0.20;0.10;;;;;;;8.77;100.00;99228.69;4993257;28;20503;-54
2022/02/16 06:10:24;;;;;;;0.20;0.10;;;;;;;8.83;100.00;99225.78;4993362;28;20516;-54
2022/02/16 06:12:51;;;;;;;0.20;0.13;;;;;;;8.63;100.00;99223.03;4992990;28;20450;-54
2022/02/16 06:15:17;;;;;;;0.20;0.17;;;;;;;8.79;100.00;99220.69;4993110;28;20477;-54
2022/02/16 06:17:44;;;;;;;0.30;0.20;;;;;;;8.89;100.00;99211.44;4993457;28;20479;-53
2022/02/16 06:20:11;;;;;;;0.20;0.10;;;;;;;8.82;100.00;99209.97;4992527;28;20953;-54
2022/02/16 06:22:38;;;;;;;0.20;0.20;;;;;;;8.78;100.00;99222.47;4993135;28;20519;-54
2022/02/16 06:25:06;;;;;;;0.30;0.20;;;;;;;8.81;100.00;99209.09;4993053;28;21020;-54
2022/02/16 06:27:34;;;;;;;0.20;0.10;;;;;;;8.77;100.00;99210.16;4992876;28;20846;-54
2022/02/16 06:30:05;;;;;;;0.20;0.20;;;;;;;8.77;100.00;99203.97;4993024;28;20461;-54
2022/02/16 06:32:33;;;;;;;0.30;0.20;;;;;;;8.84;100.00;99197.50;4993160;28;20854;-54
2022/02/16 06:35:01;;;;;;;0.20;0.10;;;;;;;8.83;100.00;99179.88;4992977;28;20509;-54
2022/02/16 06:37:28;;;;;;;0.20;0.17;;;;;;;8.86;100.00;99198.31;4992872;28;20500;-54
2022/02/16 06:39:54;;;;;;;0.30;0.17;;;;;;;8.81;100.00;99189.69;4993033;28;20449;-54
2022/02/16 06:42:21;;;;;;;0.30;0.20;;;;;;;8.83;100.00;99194.00;4992736;28;20889;-53
2022/02/16 06:44:48;;;;;;;0.20;0.20;;;;;;;8.79;100.00;99196.84;4993076;28;20473;-54
2022/02/16 06:47:14;;;;;;;0.30;0.20;;;;;;;8.65;100.00;99204.47;4992904;28;20924;-53
2022/02/16 06:49:41;;;;;;;0.20;0.10;;;;;;;8.70;100.00;99207.78;4992920;28;20508;-54
2022/02/16 06:52:08;;;;;;;0.23;0.20;;;;;;;8.81;100.00;99200.28;4992668;28;20481;-54
2022/02/16 06:54:34;;;;;;;0.30;0.20;;;;;;;8.89;100.00;99200.84;4992814;28;20473;-54
2022/02/16 06:57:01;;;;;;;0.20;0.20;;;;;;;8.80;100.00;99191.47;4992549;28;20456;-53
2022/02/16 06:59:28;;;;;;;0.20;0.20;;;;;;;8.83;100.00;99193.13;4992978;28;20449;-54
2022/02/16 07:01:54;;;;;;;0.30;0.20;;;;;;;8.74;100.00;99196.13;4992841;28;20453;-54
2022/02/16 07:04:21;;;;;;;0.30;0.20;;;;;;;8.82;100.00;99189.63;4992629;28;20887;-54
2022/02/16 07:06:47;;;;;;;0.20;0.20;;;;;;;8.85;100.00;99192.16;4992600;28;20958;-54
2022/02/16 07:09:14;;;;;;;0.20;0.10;;;;;;;8.83;100.00;99194.00;4992657;28;20876;-54
2022/02/16 07:11:42;;;;;;;0.27;0.20;;;;;;;8.85;100.00;99193.94;4992834;28;20524;-54
2022/02/16 07:14:10;;;;;;;0.30;0.20;;;;;;;8.75;100.00;99187.25;4992612;28;20879;-54
2022/02/16 07:16:37;;;;;;;0.20;0.10;;;;;;;8.84;100.00;99190.44;4992693;28;20454;-54
2022/02/16 07:19:03;;;;;;;0.30;0.20;;;;;;;8.86;100.00;99188.56;4992775;28;20509;-54
2022/02/16 07:21:30;;;;;;;0.30;0.20;;;;;;;8.96;100.00;99199.69;4992460;28;20950;-54
2022/02/16 07:23:56;;;;;;;0.20;0.20;;;;;;;8.93;100.00;99189.22;4992482;28;20454;-54
2022/02/16 07:26:23;;;;;;;0.30;0.20;;;;;;;9.04;100.00;99181.66;4992970;28;20473;-54
2022/02/16 07:28:50;;;;;;;0.20;0.20;;;;;;;8.99;100.00;99172.19;4992699;28;20493;-53
2022/02/16 07:31:16;;;;;;;0.30;0.20;;;;;;;8.77;100.00;99185.41;4994353;28;20484;-54
2022/02/16 07:33:43;;;;;;;0.30;0.20;;;;;;;8.82;100.00;99184.31;4996438;28;20943;-54
2022/02/16 07:36:09;;;;;;;0.20;0.20;;;;;;;8.83;100.00;99177.25;4987998;28;20485;-53
2022/02/16 07:38:36;;;;;;;0.30;0.20;;;;;;;8.93;100.00;99170.66;4996012;28;20497;-52
2022/02/16 07:41:03;;;;;;;0.20;0.20;;;;;;;8.83;100.00;99154.25;4983156;28;20453;-52
2022/02/16 07:43:29;;;;;;;0.30;0.17;;;;;;;8.87;100.00;99155.00;4995884;28;21025;-52
2022/02/16 07:45:56;;;;;;;0.30;0.20;;;;;;;8.87;100.00;99131.13;4995797;28;20469;-52
2022/02/16 07:48:23;;;;;;;0.20;0.17;;;;;;;8.85;100.00;99135.66;4995728;28;20492;-52
2022/02/16 07:50:49;;;;;;;0.20;0.20;;;;;;;8.80;100.00;99143.78;4995843;28;20446;-53
2022/02/16 07:53:16;;;;;;;0.30;0.20;;;;;;;8.76;100.00;99138.66;4995545;28;20492;-53
2022/02/16 07:55:43;;;;;;;0.20;0.20;;;;;;;8.93;100.00;99128.25;4996239;28;20477;-53
2022/02/16 07:58:10;;;;;;;0.27;0.20;;;;;;;9.02;100.00;99140.25;4995825;28;20499;-53
2022/02/16 08:00:37;;;;;;;0.20;0.20;;;;;;;8.97;100.00;99140.44;4995940;28;20519;-53
2022/02/16 08:03:05;;;;;;;0.30;0.20;;;;;;;9.07;100.00;99143.59;4995614;28;20572;-54
2022/02/16 08:05:34;;;;;;;0.30;0.20;;;;;;;8.99;100.00;99141.25;4995395;28;20553;-53
2022/02/16 08:08:00;;;;;;;0.27;0.10;;;;;;;8.94;100.00;99145.88;4995704;28;20520;-54
2022/02/16 08:10:28;;;;;;;0.30;0.20;;;;;;;9.13;100.00;99125.63;4995944;28;20503;-53
2022/02/16 08:12:59;;;;;;;0.20;0.13;;;;;;;9.06;100.00;99129.50;4995660;28;20533;-53
2022/02/16 08:15:27;;;;;;;0.20;0.20;;;;;;;9.23;100.00;99115.53;4995662;28;20473;-54
2022/02/16 08:17:54;;;;;;;0.30;0.20;;;;;;;9.11;100.00;99116.91;4995739;28;20449;-54
2022/02/16 08:20:21;;;;;;;0.20;0.20;;;;;;;9.07;100.00;99112.66;4995464;28;20531;-53
2022/02/16 08:22:47;;;;;;;0.30;0.20;;;;;;;9.12;100.00;99118.63;4995309;28;20489;-54
2022/02/16 08:25:15;;;;;;;0.30;0.20;;;;;;;9.11;100.00;99114.25;4994347;28;21039;-54
2022/02/16 08:27:41;;;;;;;0.30;0.20;;;;;;;9.15;100.00;99107.00;4995467;28;20910;-54
2022/02/16 08:30:10;;;;;;;0.27;0.20;;;;;;;9.12;100.00;99105.34;4995484;28;20460;-54
2022/02/16 08:32:37;;;;;;;0.30;0.20;;;;;;;9.15;100.00;99083.16;4995337;28;20457;-54
2022/02/16 08:35:06;;;;;;;0.20;0.20;;;;;;;9.10;100.00;99090.44;4995116;28;20481;-54
2022/02/16 08:37:33;;;;;;;0.60;0.60;;;;;;;9.10;100.00;99077.19;4994991;28;20500;-54
2022/02/16 08:40:00;;;;;;;0.27;0.20;;;;;;;9.11;100.00;99069.19;4995548;28;20476;-54
2022/02/16 08:42:27;;;;;;;0.20;0.10;;;;;;;9.20;100.00;99067.94;4994389;28;20456;-53
2022/02/16 08:44:56;;;;;;;0.20;0.20;;;;;;;9.29;100.00;99074.63;4994989;28;20469;-54
2022/02/16 08:47:23;;;;;;;0.30;0.10;;;;;;;9.43;100.00;99064.28;4994728;28;20918;-54
2022/02/16 08:49:49;;;;;;;0.23;0.20;;;;;;;9.38;100.00;99069.78;4994864;28;20985;-54
2022/02/16 08:52:16;;;;;;;0.30;0.20;;;;;;;9.28;100.00;99055.19;4994719;28;20454;-52
2022/02/16 08:54:43;;;;;;;0.30;0.20;;;;;;;9.28;100.00;99051.69;4994777;28;20473;-54
2022/02/16 08:57:09;;;;;;;0.20;0.17;;;;;;;9.30;100.00;99047.16;4994934;28;20453;-54
2022/02/16 08:59:36;;;;;;;0.30;0.20;;;;;;;9.36;100.00;99044.28;4994906;28;20457;-54
2022/02/16 09:02:03;;;;;;;0.30;0.20;;;;;;;9.24;100.00;99040.34;4994652;28;20462;-53
2022/02/16 09:04:30;;;;;;;0.20;0.20;;;;;;;9.35;100.00;99056.66;4994880;28;20505;-53
2022/02/16 09:09:43;;;;;;;0.30;0.20;;;;;;;9.41;100.00;99040.47;4995003;28;20580;-54
2022/02/16 09:12:11;;;;;;;0.30;0.20;;;;;;;9.44;100.00;99044.78;4994629;28;20476;-53
2022/02/16 09:14:38;;;;;;;0.30;0.20;;;;;;;9.50;100.00;99061.28;4994680;28;20524;-53
2022/02/16 09:17:05;;;;;;;0.30;0.20;;;;;;;9.53;100.00;99059.44;4994706;28;20480;-53
2022/02/16 09:19:35;;;;;;;0.30;0.20;;;;;;;9.64;100.00;99068.66;4994548;28;20919;-53
2022/02/16 09:22:03;;;;;;;0.30;0.20;;;;;;;9.67;100.00;99054.38;4994461;28;20492;-53
2022/02/16 09:24:30;;;;;;;0.30;0.20;;;;;;;9.69;100.00;99050.72;4994189;28;20833;-53
2022/02/16 09:26:57;;;;;;;0.30;0.20;;;;;;;9.95;100.00;99046.03;4994260;28;20888;-53
2022/02/16 09:29:23;;;;;;;0.30;0.20;;;;;;;9.76;100.00;99049.53;4994234;28;20489;-53
2022/02/16 09:31:53;;;;;;;0.30;0.20;;;;;;;9.86;100.00;99043.78;4994206;28;20503;-53
2022/02/16 09:34:20;;;;;;;0.30;0.20;;;;;;;9.76;100.00;99032.75;4993915;28;20512;-53
2022/02/16 09:36:47;;;;;;;0.30;0.20;;;;;;;9.89;100.00;99027.75;4993979;28;20449;-53
2022/02/16 09:39:17;;;;;;;0.30;0.20;;;;;;;10.04;100.00;99025.22;4993810;28;20508;-53
2022/02/16 09:41:44;;;;;;;0.30;0.20;;;;;;;9.98;100.00;99017.53;4994305;28;20453;-53
2022/02/16 09:44:30;;;;;;;0.30;0.20;;;;;;;9.86;100.00;99012.78;4993895;28;20828;-53
2022/02/16 09:46:58;;;;;;;0.30;0.20;;;;;;;9.91;100.00;99005.50;4993847;28;20446;-53
2022/02/16 09:49:24;;;;;;;0.30;0.20;;;;;;;10.17;100.00;98982.16;4993698;28;20567;-53
2022/02/16 09:51:53;;;;;;;0.30;0.20;;;;;;;10.13;100.00;98993.84;4993518;28;20458;-53
2022/02/16 09:54:20;;;;;;;0.30;0.20;;;;;;;10.12;100.00;98984.16;4993496;28;20449;-53
2022/02/16 09:56:47;;;;;;;0.30;0.20;;;;;;;10.27;100.00;98983.47;4993534;28;20521;-53
2022/02/16 09:59:13;;;;;;;0.30;0.20;;;;;;;10.42;100.00;98989.84;4993725;28;20480;-53
2022/02/16 10:01:59;;;;;;;0.30;0.20;;;;;;;10.35;100.00;99003.41;4993370;28;20453;-53
2022/02/16 10:04:27;;;;;;;0.30;0.20;;;;;;;10.42;100.00;98995.16;4993381;28;20474;-53
2022/02/16 10:06:54;;;;;;;0.30;0.20;;;;;;;10.39;100.00;99026.22;4993738;28;20449;-53
2022/02/16 10:09:29;;;;;;;0.30;0.20;;;;;;;10.28;100.00;99017.94;4993433;28;20535;-53
2022/02/16 10:12:01;;;;;;;0.30;0.20;;;;;;;10.29;99.78;99006.38;4981220;28;20872;-53
2022/02/16 10:14:29;;;;;;;0.30;0.20;;;;;;;10.37;99.98;99017.47;4993228;28;20812;-53
2022/02/16 10:16:59;;;;;;;0.30;0.20;;;;;;;10.40;99.61;99013.81;4993152;28;20870;-53
2022/02/16 10:19:25;;;;;;;0.30;0.20;;;;;;;10.34;100.00;99011.47;4991963;28;20488;-53
2022/02/16 10:22:03;;;;;;;0.30;0.20;;;;;;;10.36;100.00;99009.59;4993203;28;20445;-53
2022/02/16 10:24:33;;;;;;;0.30;0.20;;;;;;;10.42;99.82;99011.97;4993013;28;20473;-53
2022/02/16 10:27:00;;;;;;;0.30;0.20;;;;;;;10.55;99.77;99010.44;4993150;28;20472;-54
2022/02/16 10:29:32;;;;;;;0.30;0.20;;;;;;;10.61;99.88;99010.13;4992804;28;20489;-54
2022/02/16 10:31:59;;;;;;;0.30;0.20;;;;;;;10.58;100.00;99007.63;4993211;28;20449;-54
2022/02/16 10:34:52;;;;;;;0.30;0.20;;;;;;;10.59;100.00;99019.09;4992794;28;20536;-53
2022/02/16 10:37:35;;;;;;;0.30;0.20;;;;;;;10.46;100.00;99028.59;4990523;28;20445;-54
2022/02/16 10:40:15;;;;;;;0.30;0.20;;;;;;;10.57;100.00;99029.81;4992900;28;20880;-54
2022/02/16 10:42:57;;;;;;;0.30;0.20;;;;;;;10.50;100.00;99023.06;4979837;28;20449;-54
2022/02/16 10:45:26;;;;;;;0.30;0.20;;;;;;;10.37;100.00;99028.09;4992611;28;20505;-54
2022/02/16 10:48:04;;;;;;;0.30;0.20;;;;;;;10.31;100.00;99025.75;4992832;28;20484;-54
2022/02/16 10:50:51;;;;;;;0.30;0.20;;;;;;;10.28;100.00;99019.69;4992671;28;20472;-54
2022/02/16 10:53:29;;;;;;;0.30;0.20;;;;;;;10.44;100.00;99022.50;4992695;28;20492;-54
2022/02/16 10:55:57;;;;;;;0.60;0.53;;;;;;;10.37;100.00;99022.78;4992860;28;20479;-54
2022/02/16 10:58:26;;;;;;;0.30;0.20;;;;;;;10.49;100.00;99031.09;4992646;28;20457;-53
2022/02/16 11:00:56;;;;;;;0.30;0.20;;;;;;;10.45;100.00;99034.84;4992925;28;20450;-54
2022/02/16 11:03:28;;;;;;;0.30;0.20;;;;;;;10.52;100.00;99039.78;4992885;28;20536;-54
2022/02/16 11:05:57;;;;;;;0.30;0.20;;;;;;;10.71;100.00;99023.81;4994048;28;20549;-54
2022/02/16 11:08:26;;;;;;;0.30;0.20;;;;;;;10.81;100.00;99033.03;4996629;28;20936;-54
2022/02/16 11:11:15;;;;;;;0.40;0.40;;;;;;;10.75;100.00;99033.34;4996493;28;20825;-52
2022/02/16 11:13:52;;;;;;;0.30;0.20;;;;;;;10.89;100.00;99030.00;4996807;28;20449;-54
2022/02/16 11:16:20;;;;;;;0.30;0.20;;;;;;;10.92;100.00;99025.38;4996413;28;20487;-54
2022/02/16 11:18:51;;;;;;;0.30;0.20;;;;;;;10.86;100.00;99028.38;4996549;28;20449;-54
2022/02/16 11:21:21;;;;;;;0.30;0.20;;;;;;;10.74;100.00;99028.13;4996341;28;20446;-54
2022/02/16 11:23:54;;;;;;;0.30;0.20;;;;;;;10.76;100.00;99026.22;4996404;28;20457;-53
2022/02/16 11:26:44;;;;;;;0.30;0.20;;;;;;;10.69;100.00;99038.97;4996446;28;20473;-53
2022/02/16 11:29:26;;;;;;;0.30;0.20;;;;;;;10.77;100.00;99041.25;4996383;28;20542;-53
2022/02/16 11:32:01;;;;;;;0.30;0.20;;;;;;;10.79;100.00;99029.59;4996358;28;20445;-53
2022/02/16 11:34:28;;;;;;;0.30;0.20;;;;;;;10.65;100.00;99016.97;4996301;28;20531;-53
2022/02/16 11:37:02;;;;;;;0.30;0.20;;;;;;;10.85;100.00;99029.31;4996311;28;20445;-52
2022/02/16 11:39:48;;;;;;;0.30;0.20;;;;;;;10.82;100.00;99020.59;4996045;28;20441;-53